Time;durP1;ratioP1;P1;durP2;ratioP2;P2;SDS_P1;SDS_P2;PMS_P1;PMS_P2;Temp;Humidity;BMP_temperature;BMP_pressure;BME280_temperature;BME280_humidity;BME280_pressure;Samples;Min_cycle;Max_cycle;Signal;HPM_P1;HPM_P2
2023/10/17 00:02:53;;;;;;;;;;;8.20;99.90;;;;;;5134277;27;19915;-45
2023/10/17 00:05:20;;;;;;;;;;;8.10;99.90;;;;;;5134377;27;19911;-45
2023/10/17 00:07:46;;;;;;;;;;;8.10;99.90;;;;;;5115988;27;19920;-45
2023/10/17 00:10:17;;;;;;;;;;;8.00;99.90;;;;;;5119699;27;19919;-45
2023/10/17 00:12:50;;;;;;;;;;;8.00;99.90;;;;;;5134167;27;19990;-47
2023/10/17 00:15:28;;;;;;;;;;;8.00;99.90;;;;;;5132541;27;20377;-44
2023/10/17 00:18:11;;;;;;;;;;;7.90;99.90;;;;;;5133945;27;20346;-45
2023/10/17 00:20:40;;;;;;;;;;;7.90;99.90;;;;;;5132396;27;19953;-46
2023/10/17 00:23:06;;;;;;;;;;;7.80;99.90;;;;;;5133902;27;19911;-45
2023/10/17 00:25:32;;;;;;;;;;;7.80;99.90;;;;;;5130452;27;20354;-45
2023/10/17 00:27:58;;;;;;;;;;;7.80;99.90;;;;;;5133784;27;19947;-45
2023/10/17 00:30:29;;;;;;;;;;;7.80;99.90;;;;;;5132142;27;19939;-47
2023/10/17 00:32:55;;;;;;;;;;;7.80;99.90;;;;;;5133849;27;20014;-45
2023/10/17 00:35:25;;;;;;;;;;;7.70;99.90;;;;;;5133676;27;20009;-46
2023/10/17 00:37:57;;;;;;;;;;;7.80;99.90;;;;;;5133566;27;19964;-45
2023/10/17 00:40:56;;;;;;;;;;;7.70;99.90;;;;;;5129932;27;19911;-45
2023/10/17 00:43:14;;;;;;;;;;;7.70;99.90;;;;;;5109166;28;20378;-45
2023/10/17 00:45:40;;;;;;;;;;;7.70;99.90;;;;;;5118315;28;19912;-45
2023/10/17 00:48:17;;;;;;;;;;;7.70;99.90;;;;;;5133563;28;20259;-45
2023/10/17 00:50:43;;;;;;;;;;;7.70;99.90;;;;;;5132520;28;19919;-45
2023/10/17 00:53:09;;;;;;;;;;;7.70;99.90;;;;;;5133597;28;19907;-44
2023/10/17 00:55:35;;;;;;;;;;;7.60;99.90;;;;;;5131925;28;20362;-45
2023/10/17 00:58:01;;;;;;;;;;;7.60;99.90;;;;;;5133509;28;19914;-45
2023/10/17 01:00:36;;;;;;;;;;;7.60;99.90;;;;;;5129403;28;19920;-45
2023/10/17 01:03:08;;;;;;;;;;;7.60;99.90;;;;;;5133554;28;19952;-45
2023/10/17 01:08:50;;;;;;;;;;;7.60;99.90;;;;;;5118695;28;20299;-46
2023/10/17 01:11:27;;;;;;;;;;;7.60;99.90;;;;;;5119105;28;19947;-45
2023/10/17 01:13:53;;;;;;;;;;;7.50;99.90;;;;;;5133436;28;20011;-44
2023/10/17 01:16:20;;;;;;;;;;;7.60;99.90;;;;;;5131924;28;20017;-45
2023/10/17 01:18:45;;;;;;;;;;;7.60;99.90;;;;;;5133403;28;19994;-45
2023/10/17 01:21:20;;;;;;;;;;;7.60;99.90;;;;;;5133795;28;20383;-44
2023/10/17 01:23:46;;;;;;;;;;;7.60;99.90;;;;;;5127197;28;19916;-45
2023/10/17 01:26:20;;;;;;;;;;;7.60;99.90;;;;;;5116056;28;19915;-45
2023/10/17 01:28:49;;;;;;;;;;;7.60;99.90;;;;;;5133267;28;19919;-46
2023/10/17 01:31:16;;;;;;;;;;;7.60;99.90;;;;;;5131578;28;20274;-44
2023/10/17 01:33:45;;;;;;;;;;;7.60;99.90;;;;;;5133325;28;20332;-46
2023/10/17 01:36:13;;;;;;;;;;;7.60;99.90;;;;;;5132069;27;19908;-45
2023/10/17 01:38:38;;;;;;;;;;;7.60;99.90;;;;;;5133157;28;19908;-45
2023/10/17 01:41:05;;;;;;;;;;;7.50;99.90;;;;;;5131575;28;19915;-45
2023/10/17 01:43:31;;;;;;;;;;;7.50;99.90;;;;;;5133238;28;19915;-45
2023/10/17 01:45:57;;;;;;;;;;;7.50;99.90;;;;;;5131469;27;19912;-46
2023/10/17 01:48:25;;;;;;;;;;;7.40;99.90;;;;;;5136690;27;19938;-45
2023/10/17 01:50:51;;;;;;;;;;;7.40;99.90;;;;;;5136753;27;19927;-47
2023/10/17 01:53:16;;;;;;;;;;;7.30;99.90;;;;;;5136663;27;19911;-45
2023/10/17 01:55:45;;;;;;;;;;;7.20;99.90;;;;;;5134486;27;20373;-46
2023/10/17 01:58:15;;;;;;;;;;;7.20;99.90;;;;;;5132589;27;20422;-46
2023/10/17 02:00:42;;;;;;;;;;;7.10;99.90;;;;;;5136631;27;19998;-47
2023/10/17 02:03:08;;;;;;;;;;;7.10;99.90;;;;;;5134913;27;19912;-46
2023/10/17 02:05:36;;;;;;;;;;;7.10;99.90;;;;;;5136432;27;19907;-47
2023/10/17 02:08:01;;;;;;;;;;;7.10;99.90;;;;;;5115059;28;20006;-46
2023/10/17 02:10:28;;;;;;;;;;;7.10;99.90;;;;;;5115935;28;20349;-45
2023/10/17 02:12:54;;;;;;;;;;;7.00;99.90;;;;;;5127829;27;19961;-46
2023/10/17 02:15:20;;;;;;;;;;;7.00;99.90;;;;;;5136386;27;19938;-47
2023/10/17 02:17:46;;;;;;;;;;;7.00;99.90;;;;;;5134493;27;20259;-45
2023/10/17 02:22:52;;;;;;;;;;;7.00;99.90;;;;;;5136230;27;19930;-46
2023/10/17 02:25:21;;;;;;;;;;;6.90;99.90;;;;;;5136129;27;20362;-46
2023/10/17 02:27:49;;;;;;;;;;;6.90;99.90;;;;;;5132469;27;19919;-46
2023/10/17 02:30:15;;;;;;;;;;;6.90;99.90;;;;;;5136088;27;19907;-45
2023/10/17 02:32:44;;;;;;;;;;;6.90;99.90;;;;;;5134374;27;19972;-46
2023/10/17 02:35:14;;;;;;;;;;;6.90;99.90;;;;;;5136092;27;19911;-46
2023/10/17 02:37:43;;;;;;;;;;;6.90;99.90;;;;;;5134598;27;20378;-46
2023/10/17 02:40:20;;;;;;;;;;;6.90;99.90;;;;;;5134926;27;21479;-45
2023/10/17 02:42:48;;;;;;;;;;;6.90;99.90;;;;;;5133831;27;20018;-46
2023/10/17 02:45:24;;;;;;;;;;;6.80;99.90;;;;;;5135814;27;19914;-47
2023/10/17 02:48:23;;;;;;;;;;;6.80;99.90;;;;;;5133953;27;20373;-46
2023/10/17 02:50:58;;;;;;;;;;;6.80;99.90;;;;;;5135368;27;19975;-46
2023/10/17 02:53:24;;;;;;;;;;;6.80;99.90;;;;;;5120260;27;19915;-45
2023/10/17 02:55:50;;;;;;;;;;;6.80;99.90;;;;;;5114904;28;19912;-47
2023/10/17 02:58:16;;;;;;;;;;;6.80;99.90;;;;;;5122385;27;19918;-46
2023/10/17 03:00:47;;;;;;;;;;;6.80;99.90;;;;;;5135455;27;19968;-46
2023/10/17 03:03:13;;;;;;;;;;;6.80;99.90;;;;;;5134047;27;19957;-48
2023/10/17 03:05:50;;;;;;;;;;;6.70;99.90;;;;;;5135241;27;19907;-50
2023/10/17 03:08:17;;;;;;;;;;;6.80;99.90;;;;;;5114483;27;20393;-47
2023/10/17 03:10:43;;;;;;;;;;;6.80;99.90;;;;;;5114658;28;19927;-45
2023/10/17 03:15:48;;;;;;;;;;;6.80;99.90;;;;;;5114648;28;19915;-46
2023/10/17 03:18:17;;;;;;;;;;;6.90;99.90;;;;;;5113642;28;19911;-45
2023/10/17 03:20:51;;;;;;;;;;;6.90;99.90;;;;;;5114653;28;19908;-46
2023/10/17 03:23:20;;;;;;;;;;;6.90;99.90;;;;;;5114692;28;19934;-47
2023/10/17 03:25:48;;;;;;;;;;;6.90;99.90;;;;;;5114394;28;19907;-46
2023/10/17 03:28:15;;;;;;;;;;;7.00;99.90;;;;;;5116091;27;19919;-46
2023/10/17 03:30:43;;;;;;;;;;;7.00;99.90;;;;;;5134930;27;19914;-46
2023/10/17 03:33:13;;;;;;;;;;;7.10;99.90;;;;;;5116614;27;20324;-47
2023/10/17 03:38:26;;;;;;;;;;;7.10;99.90;;;;;;5133660;27;19942;-47
2023/10/17 03:41:01;;;;;;;;;;;7.20;99.90;;;;;;5134583;27;20001;-48
2023/10/17 03:43:29;;;;;;;;;;;7.20;99.90;;;;;;5128984;27;20350;-46
2023/10/17 03:46:04;;;;;;;;;;;7.20;99.90;;;;;;5114270;28;19919;-48
2023/10/17 03:48:32;;;;;;;;;;;7.30;99.90;;;;;;5132844;27;19923;-46
2023/10/17 03:53:36;;;;;;;;;;;7.30;99.90;;;;;;5134759;27;19932;-46
2023/10/17 03:56:03;;;;;;;;;;;7.30;99.90;;;;;;5134298;27;19907;-48
2023/10/17 04:00:59;;;;;;;;;;;7.30;99.90;;;;;;5134326;27;19912;-47
2023/10/17 04:03:25;;;;;;;;;;;7.30;99.90;;;;;;5132741;27;19907;-47
2023/10/17 04:06:00;;;;;;;;;;;7.30;99.90;;;;;;5134251;27;20288;-48
2023/10/17 04:08:31;;;;;;;;;;;7.30;99.90;;;;;;5133220;27;20018;-46
2023/10/17 04:11:11;;;;;;;;;;;7.30;99.90;;;;;;5133638;27;19916;-46
2023/10/17 04:13:42;;;;;;;;;;;7.30;99.90;;;;;;5131576;27;19961;-48
2023/10/17 04:16:14;;;;;;;;;;;7.40;99.90;;;;;;5114582;28;20031;-46
2023/10/17 04:18:40;;;;;;;;;;;7.40;99.90;;;;;;5133175;27;19911;-46
2023/10/17 04:21:26;;;;;;;;;;;7.40;99.90;;;;;;5133985;27;19914;-45
2023/10/17 04:23:52;;;;;;;;;;;7.40;99.90;;;;;;5133942;27;19915;-46
2023/10/17 04:26:18;;;;;;;;;;;7.40;99.90;;;;;;5134054;27;19908;-45
2023/10/17 04:28:50;;;;;;;;;;;7.40;99.90;;;;;;5111934;27;19925;-49
2023/10/17 04:31:24;;;;;;;;;;;7.40;99.90;;;;;;5132069;27;20057;-45
2023/10/17 04:34:45;;;;;;;;;;;7.40;99.90;;;;;;5132073;27;19994;-46
2023/10/17 04:36:43;;;;;;;;;;;7.50;99.90;;;;;;5116576;27;20155;-46
2023/10/17 04:39:18;;;;;;;;;;;7.50;99.90;;;;;;5113358;28;19912;-46
2023/10/17 04:44:17;;;;;;;;;;;7.50;99.90;;;;;;5115593;28;20762;-46
2023/10/17 04:46:50;;;;;;;;;;;7.50;99.90;;;;;;5130949;28;20376;-47
2023/10/17 04:49:20;;;;;;;;;;;7.50;99.90;;;;;;5126661;28;19912;-47
2023/10/17 04:51:51;;;;;;;;;;;7.60;99.90;;;;;;5113201;28;19934;-46
2023/10/17 04:54:29;;;;;;;;;;;7.60;99.90;;;;;;5113168;28;19915;-46
2023/10/17 04:57:07;;;;;;;;;;;7.60;99.90;;;;;;5119537;28;19919;-47
2023/10/17 05:07:28;;;;;;;;;;;7.60;99.90;;;;;;5132641;28;20056;-46
2023/10/17 06:18:48;;;;;;;;;;;7.70;99.90;;;;;;5116202;28;19914;-46
2023/10/17 06:26:46;;;;;;;;;;;7.70;99.90;;;;;;5133267;27;19922;-46
2023/10/17 06:34:14;;;;;;;;;;;7.80;99.90;;;;;;5118267;27;19919;-46
2023/10/17 06:36:41;;;;;;;;;;;7.80;99.90;;;;;;5134681;27;19919;-47
2023/10/17 06:42:14;;;;;;;;;;;7.80;99.90;;;;;;5095218;27;20011;-47
2023/10/17 06:44:53;;;;;;;;;;;7.80;99.90;;;;;;5136945;27;19923;-48
2023/10/17 06:47:30;;;;;;;;;;;7.80;99.90;;;;;;5129413;27;19926;-45
2023/10/17 06:52:39;;;;;;;;;;;7.80;99.90;;;;;;5133934;27;20281;-46
2023/10/17 06:55:07;;;;;;;;;;;7.90;99.90;;;;;;5126276;27;20393;-45
2023/10/17 06:57:34;;;;;;;;;;;7.90;99.90;;;;;;5130596;27;20445;-45
2023/10/17 07:03:04;;;;;;;;;;;8.00;99.90;;;;;;5082554;28;19919;-47
2023/10/17 07:05:32;;;;;;;;;;;8.00;99.90;;;;;;5092218;28;19912;-46
2023/10/17 07:07:59;;;;;;;;;;;8.10;99.90;;;;;;5100526;28;20362;-47
2023/10/17 07:13:22;;;;;;;;;;;8.10;99.90;;;;;;5135252;27;19918;-45
2023/10/17 07:15:52;;;;;;;;;;;8.20;99.90;;;;;;5133731;27;20378;-47
2023/10/17 07:23:43;;;;;;;;;;;8.40;99.90;;;;;;5131485;27;19919;-46
2023/10/17 07:26:18;;;;;;;;;;;8.50;99.90;;;;;;5135007;27;20366;-49
2023/10/17 07:28:44;;;;;;;;;;;8.60;99.90;;;;;;5134726;27;20029;-47
2023/10/17 07:31:11;;;;;;;;;;;8.60;99.90;;;;;;5122704;27;19912;-47
2023/10/17 07:33:37;;;;;;;;;;;8.70;99.90;;;;;;5120294;27;20439;-46
2023/10/17 07:36:05;;;;;;;;;;;8.70;99.90;;;;;;5134762;27;20400;-46
2023/10/17 07:38:31;;;;;;;;;;;8.70;99.90;;;;;;5134454;27;19923;-45
2023/10/17 07:41:09;;;;;;;;;;;8.80;99.90;;;;;;5134696;27;20414;-45
2023/10/17 07:43:35;;;;;;;;;;;8.80;99.90;;;;;;5134670;27;19907;-46
2023/10/17 07:46:06;;;;;;;;;;;8.90;99.90;;;;;;5124909;27;19930;-46
2023/10/17 07:48:31;;;;;;;;;;;8.90;99.90;;;;;;5113935;28;19962;-46
2023/10/17 07:50:59;;;;;;;;;;;9.00;99.90;;;;;;5113865;28;19915;-47
2023/10/17 07:53:26;;;;;;;;;;;9.00;99.90;;;;;;5113981;28;20014;-47
2023/10/17 07:55:52;;;;;;;;;;;9.10;99.90;;;;;;5121066;27;20285;-48
2023/10/17 07:58:41;;;;;;;;;;;9.10;99.90;;;;;;5132461;27;19911;-47
2023/10/17 08:01:07;;;;;;;;;;;9.10;99.90;;;;;;5129544;27;19912;-46
2023/10/17 08:03:40;;;;;;;;;;;9.10;99.90;;;;;;5134541;27;20003;-48
2023/10/17 08:06:07;;;;;;;;;;;9.20;99.90;;;;;;5134245;27;19914;-47
2023/10/17 08:08:34;;;;;;;;;;;9.20;99.90;;;;;;5128482;27;20350;-47
2023/10/17 08:11:03;;;;;;;;;;;9.20;99.90;;;;;;5127965;27;20270;-46
2023/10/17 08:13:29;;;;;;;;;;;9.30;99.90;;;;;;5126036;27;21263;-49
2023/10/17 08:16:05;;;;;;;;;;;9.30;99.90;;;;;;5124996;27;19911;-50
2023/10/17 08:18:39;;;;;;;;;;;9.30;99.90;;;;;;5121971;27;20378;-47
2023/10/17 08:23:49;;;;;;;;;;;9.30;99.90;;;;;;5113807;28;20444;-46
2023/10/17 08:26:17;;;;;;;;;;;9.40;99.90;;;;;;5113769;28;20358;-48
2023/10/17 08:28:46;;;;;;;;;;;9.40;99.90;;;;;;5113187;28;20446;-46
2023/10/17 08:31:35;;;;;;;;;;;9.40;99.90;;;;;;5112946;27;19915;-46
2023/10/17 08:36:47;;;;;;;;;;;9.50;99.90;;;;;;5127545;27;20388;-46
2023/10/17 08:42:05;;;;;;;;;;;9.60;99.90;;;;;;5126664;27;20460;-46
2023/10/17 08:44:33;;;;;;;;;;;9.60;99.90;;;;;;5119804;28;19923;-47
2023/10/17 08:47:00;;;;;;;;;;;9.70;99.90;;;;;;5113243;28;19923;-48
2023/10/17 08:49:27;;;;;;;;;;;9.70;99.90;;;;;;5121391;28;19912;-46
2023/10/17 08:51:56;;;;;;;;;;;9.70;99.90;;;;;;5122352;28;20293;-47
2023/10/17 08:54:22;;;;;;;;;;;9.80;99.90;;;;;;5116357;28;19911;-47
2023/10/17 08:56:47;;;;;;;;;;;9.80;99.90;;;;;;5116438;27;20706;-48
2023/10/17 08:59:15;;;;;;;;;;;9.90;99.90;;;;;;5125868;27;19994;-47
2023/10/17 09:02:03;;;;;;;;;;;9.90;99.90;;;;;;5126253;27;20373;-47
2023/10/17 09:04:33;;;;;;;;;;;9.90;99.90;;;;;;5119253;27;20006;-47
2023/10/17 09:07:08;;;;;;;;;;;10.00;99.90;;;;;;5137831;27;19916;-46
2023/10/17 09:09:34;;;;;;;;;;;10.00;99.90;;;;;;5137708;27;20322;-46
2023/10/17 09:12:19;;;;;;;;;;;10.10;99.90;;;;;;5137527;27;19908;-47
2023/10/17 09:14:48;;;;;;;;;;;10.20;99.90;;;;;;5151156;27;19917;-46
2023/10/17 09:17:21;;;;;;;;;;;10.20;99.90;;;;;;5132176;27;19915;-46
2023/10/17 09:19:46;;;;;;;;;;;10.30;99.90;;;;;;5116989;28;19914;-46
2023/10/17 09:22:15;;;;;;;;;;;10.30;99.90;;;;;;5117138;28;19908;-47
2023/10/17 09:24:45;;;;;;;;;;;10.30;99.90;;;;;;5119612;27;19947;-48
2023/10/17 09:27:14;;;;;;;;;;;10.40;99.90;;;;;;5116629;28;20385;-49
2023/10/17 09:29:49;;;;;;;;;;;10.40;99.90;;;;;;5117865;27;19931;-49
2023/10/17 09:32:34;;;;;;;;;;;10.50;99.90;;;;;;5129013;27;19993;-46
2023/10/17 09:35:03;;;;;;;;;;;10.50;99.90;;;;;;5116583;28;19939;-46
2023/10/17 09:37:28;;;;;;;;;;;10.60;99.90;;;;;;5116397;28;19920;-45
2023/10/17 09:39:54;;;;;;;;;;;10.60;99.90;;;;;;5116413;28;19915;-47
2023/10/17 09:42:20;;;;;;;;;;;10.70;99.90;;;;;;5116477;28;20251;-47
2023/10/17 09:44:45;;;;;;;;;;;10.70;99.90;;;;;;5116378;28;20393;-47
2023/10/17 09:47:13;;;;;;;;;;;10.80;99.90;;;;;;5123541;27;19920;-47
2023/10/17 09:49:44;;;;;;;;;;;10.80;99.90;;;;;;5136944;27;19907;-47
2023/10/17 09:52:10;;;;;;;;;;;10.90;99.90;;;;;;5136949;27;20007;-45
2023/10/17 09:54:40;;;;;;;;;;;11.00;99.90;;;;;;5136619;27;19942;-46
2023/10/17 09:57:14;;;;;;;;;;;11.10;99.90;;;;;;5129324;27;19955;-48
2023/10/17 09:59:51;;;;;;;;;;;11.10;99.90;;;;;;5116271;28;19973;-46
2023/10/17 10:02:20;;;;;;;;;;;11.20;99.90;;;;;;5117006;27;20282;-46
2023/10/17 10:04:46;;;;;;;;;;;11.20;99.90;;;;;;5116236;28;19908;-45
2023/10/17 10:07:19;;;;;;;;;;;11.30;99.90;;;;;;5115175;28;19922;-45
2023/10/17 10:09:44;;;;;;;;;;;11.30;99.90;;;;;;5115984;28;20007;-48
2023/10/17 10:12:10;;;;;;;;;;;11.30;99.90;;;;;;5115908;28;20342;-47
2023/10/17 10:14:37;;;;;;;;;;;11.40;99.90;;;;;;5115912;28;19908;-46
2023/10/17 10:17:05;;;;;;;;;;;11.40;99.90;;;;;;5118108;27;19912;-45
2023/10/17 10:19:40;;;;;;;;;;;11.50;99.90;;;;;;5115691;28;20389;-46
2023/10/17 10:22:06;;;;;;;;;;;11.60;99.90;;;;;;5116194;28;20280;-46
2023/10/17 10:24:32;;;;;;;;;;;11.60;99.90;;;;;;5115725;28;19930;-46
2023/10/17 10:27:18;;;;;;;;;;;11.70;99.90;;;;;;5115569;28;19962;-46
2023/10/17 10:29:52;;;;;;;;;;;11.70;99.90;;;;;;5115640;28;19955;-46
2023/10/17 10:32:23;;;;;;;;;;;11.80;99.90;;;;;;5127434;27;19918;-45
2023/10/17 10:34:49;;;;;;;;;;;11.90;99.90;;;;;;5135992;27;20343;-45
2023/10/17 10:37:15;;;;;;;;;;;11.90;99.90;;;;;;5135864;27;19966;-46
2023/10/17 10:40:01;;;;;;;;;;;12.00;99.90;;;;;;5135925;27;19915;-47
2023/10/17 10:42:26;;;;;;;;;;;12.00;99.90;;;;;;5134070;27;19918;-46
2023/10/17 10:44:52;;;;;;;;;;;12.10;99.90;;;;;;5135828;27;19907;-46
2023/10/17 10:47:18;;;;;;;;;;;12.10;99.90;;;;;;5124383;27;19959;-46
2023/10/17 10:49:44;;;;;;;;;;;12.20;99.90;;;;;;5115217;28;19954;-47
2023/10/17 10:52:09;;;;;;;;;;;12.20;99.90;;;;;;5115137;28;19915;-45
2023/10/17 10:54:50;;;;;;;;;;;12.20;99.90;;;;;;5115233;28;19968;-49
2023/10/17 10:57:25;;;;;;;;;;;12.30;99.90;;;;;;5115030;28;20350;-46
2023/10/17 10:59:52;;;;;;;;;;;12.30;99.90;;;;;;5115030;28;19956;-46
2023/10/17 11:02:20;;;;;;;;;;;12.40;99.90;;;;;;5116600;27;20298;-47
2023/10/17 11:04:47;;;;;;;;;;;12.40;99.90;;;;;;5114743;28;19908;-46
2023/10/17 11:07:23;;;;;;;;;;;12.50;99.90;;;;;;5114766;28;19937;-49
2023/10/17 11:10:03;;;;;;;;;;;12.60;99.90;;;;;;5117883;27;19912;-46
2023/10/17 11:12:28;;;;;;;;;;;12.60;99.90;;;;;;5114520;28;19911;-46
2023/10/17 11:15:11;;;;;;;;;;;12.60;99.90;;;;;;5114624;28;19967;-46
2023/10/17 11:17:43;;;;;;;;;;;12.70;99.90;;;;;;5116175;27;20007;-47
2023/10/17 11:20:18;;;;;;;;;;;12.70;99.90;;;;;;5113573;28;19907;-47
2023/10/17 11:22:45;;;;;;;;;;;12.80;99.90;;;;;;5114535;28;20381;-46
2023/10/17 11:25:15;;;;;;;;;;;12.90;99.90;;;;;;5114657;28;19907;-46
2023/10/17 11:27:49;;;;;;;;;;;12.90;99.90;;;;;;5114292;28;20500;-46
2023/10/17 11:30:18;;;;;;;;;;;13.00;99.90;;;;;;5114300;28;19915;-46
2023/10/17 11:32:45;;;;;;;;;;;12.90;99.90;;;;;;5114473;27;19911;-46
2023/10/17 11:35:19;;;;;;;;;;;13.00;99.90;;;;;;5114427;28;19908;-45
2023/10/17 11:37:45;;;;;;;;;;;13.00;99.90;;;;;;5114061;28;19946;-47
2023/10/17 11:40:29;;;;;;;;;;;13.00;99.90;;;;;;5114246;28;19915;-45
2023/10/17 11:42:55;;;;;;;;;;;13.10;99.90;;;;;;5114120;28;19935;-47
2023/10/17 11:45:33;;;;;;;;;;;13.10;99.90;;;;;;5113720;28;20389;-49
2023/10/17 11:48:06;;;;;;;;;;;13.00;99.90;;;;;;5115557;27;19976;-47
2023/10/17 11:50:33;;;;;;;;;;;13.10;99.90;;;;;;5114129;28;19907;-47
2023/10/17 11:53:09;;;;;;;;;;;13.10;99.90;;;;;;5113924;28;19911;-46
2023/10/17 11:55:46;;;;;;;;;;;13.10;99.90;;;;;;5113983;28;20007;-46
2023/10/17 11:58:25;;;;;;;;;;;13.20;99.90;;;;;;5114043;28;19976;-48
2023/10/17 12:00:51;;;;;;;;;;;13.20;99.90;;;;;;5113712;28;19963;-46
2023/10/17 12:03:19;;;;;;;;;;;13.20;99.90;;;;;;5121324;27;19912;-46
2023/10/17 12:05:46;;;;;;;;;;;13.30;99.90;;;;;;5129711;27;19911;-47
2023/10/17 12:08:15;;;;;;;;;;;13.20;99.90;;;;;;5124915;27;19919;-46
2023/10/17 12:10:43;;;;;;;;;;;13.30;99.90;;;;;;5117223;27;19939;-48
2023/10/17 12:13:08;;;;;;;;;;;13.30;99.90;;;;;;5113693;27;19947;-47
2023/10/17 12:15:34;;;;;;;;;;;13.30;99.90;;;;;;5115816;27;19970;-45
2023/10/17 12:17:59;;;;;;;;;;;13.30;99.90;;;;;;5121754;27;19911;-47
2023/10/17 12:20:28;;;;;;;;;;;13.30;99.90;;;;;;5129654;27;19954;-47
2023/10/17 12:22:56;;;;;;;;;;;13.40;99.90;;;;;;5132561;27;19917;-45
2023/10/17 12:25:25;;;;;;;;;;;13.40;99.90;;;;;;5119881;27;19955;-46
2023/10/17 12:27:52;;;;;;;;;;;13.40;99.90;;;;;;5118594;27;20366;-48
2023/10/17 12:30:23;;;;;;;;;;;13.40;99.90;;;;;;5121742;27;20380;-46
2023/10/17 12:32:49;;;;;;;;;;;13.40;99.90;;;;;;5125142;27;20228;-46
2023/10/17 12:35:16;;;;;;;;;;;13.50;99.90;;;;;;5134028;27;20140;-46
2023/10/17 12:37:45;;;;;;;;;;;13.50;99.90;;;;;;5124041;27;19974;-47
2023/10/17 12:40:23;;;;;;;;;;;13.60;99.90;;;;;;5112929;28;19912;-47
2023/10/17 12:42:49;;;;;;;;;;;13.60;99.90;;;;;;5113514;28;19995;-45
2023/10/17 12:45:15;;;;;;;;;;;13.70;99.90;;;;;;5112882;28;19998;-47
2023/10/17 12:47:43;;;;;;;;;;;13.80;99.90;;;;;;5116549;28;20003;-48
2023/10/17 12:50:12;;;;;;;;;;;13.80;99.90;;;;;;5120898;28;20365;-45
2023/10/17 12:52:38;;;;;;;;;;;13.90;99.90;;;;;;5115718;28;20279;-45
2023/10/17 12:55:04;;;;;;;;;;;13.90;99.90;;;;;;5114600;28;19912;-46
2023/10/17 12:57:29;;;;;;;;;;;14.10;99.90;;;;;;5125453;28;19919;-46
2023/10/17 12:59:58;;;;;;;;;;;14.20;99.90;;;;;;5124570;28;19911;-46
2023/10/17 13:02:30;;;;;;;;;;;14.40;99.90;;;;;;5110541;28;19912;-45
2023/10/17 13:04:58;;;;;;;;;;;14.60;99.90;;;;;;5110338;28;19908;-46
2023/10/17 13:07:23;;;;;;;;;;;14.90;99.90;;;;;;5129116;28;19926;-47
2023/10/17 13:09:49;;;;;;;;;;;15.10;99.90;;;;;;5126548;28;19911;-47
2023/10/17 13:12:14;;;;;;;;;;;15.30;99.90;;;;;;5123182;28;20392;-45
2023/10/17 13:14:40;;;;;;;;;;;15.50;99.90;;;;;;5120746;28;19915;-45
2023/10/17 13:17:09;;;;;;;;;;;15.60;99.90;;;;;;5116196;28;19916;-45
2023/10/17 13:19:39;;;;;;;;;;;15.80;99.90;;;;;;5108489;28;20015;-47
2023/10/17 13:22:08;;;;;;;;;;;16.00;99.90;;;;;;5115915;28;19919;-46
2023/10/17 13:24:34;;;;;;;;;;;16.30;99.90;;;;;;5116806;28;19969;-47
2023/10/17 13:27:00;;;;;;;;;;;16.40;99.90;;;;;;5127961;28;19927;-46
2023/10/17 13:29:26;;;;;;;;;;;16.70;99.90;;;;;;5112959;28;19908;-47
2023/10/17 13:31:51;;;;;;;;;;;16.90;99.90;;;;;;5111495;28;19934;-45
2023/10/17 13:34:22;;;;;;;;;;;17.00;99.90;;;;;;5120805;28;19965;-48
2023/10/17 13:36:48;;;;;;;;;;;17.20;99.90;;;;;;5109957;28;19924;-46
2023/10/17 13:39:13;;;;;;;;;;;17.40;99.90;;;;;;5109595;28;19919;-48
2023/10/17 13:41:39;;;;;;;;;;;17.50;99.90;;;;;;5112283;28;19918;-48
2023/10/17 13:44:04;;;;;;;;;;;17.70;99.90;;;;;;5130564;27;19915;-47
2023/10/17 13:46:32;;;;;;;;;;;17.70;99.90;;;;;;5123958;27;19922;-46
2023/10/17 13:48:58;;;;;;;;;;;17.80;99.90;;;;;;5118629;27;19926;-47
2023/10/17 13:51:23;;;;;;;;;;;18.10;99.90;;;;;;5127188;27;20061;-47
2023/10/17 13:53:50;;;;;;;;;;;18.20;99.90;;;;;;5130027;27;19907;-45
2023/10/17 13:56:18;;;;;;;;;;;18.40;99.90;;;;;;5119915;27;20270;-45
2023/10/17 13:58:46;;;;;;;;;;;18.50;99.90;;;;;;5128817;27;20389;-47
2023/10/17 14:01:27;;;;;;;;;;;18.60;99.90;;;;;;5124169;27;19911;-47
2023/10/17 14:03:54;;;;;;;;;;;18.80;99.90;;;;;;5114475;27;19994;-45
2023/10/17 14:06:20;;;;;;;;;;;18.90;99.90;;;;;;5115232;27;19930;-46
2023/10/17 14:08:46;;;;;;;;;;;19.00;99.90;;;;;;5135390;27;19915;-46
2023/10/17 14:11:17;;;;;;;;;;;19.10;99.90;;;;;;5133969;27;19911;-46
2023/10/17 14:13:49;;;;;;;;;;;19.30;99.90;;;;;;5136122;27;19998;-47
2023/10/17 14:16:15;;;;;;;;;;;19.40;99.90;;;;;;5136604;27;19946;-45
2023/10/17 14:18:42;;;;;;;;;;;19.40;99.90;;;;;;5127380;27;19955;-45
2023/10/17 14:21:23;;;;;;;;;;;19.60;99.90;;;;;;5115718;28;19919;-46
2023/10/17 14:23:58;;;;;;;;;;;19.50;99.90;;;;;;5130854;27;19953;-48
2023/10/17 14:26:29;;;;;;;;;;;19.70;99.90;;;;;;5136248;27;19912;-46
2023/10/17 14:28:56;;;;;;;;;;;19.80;99.90;;;;;;5136162;27;19923;-48
2023/10/17 14:31:23;;;;;;;;;;;19.90;99.90;;;;;;5136096;27;19916;-47
2023/10/17 14:33:52;;;;;;;;;;;19.90;99.40;;;;;;5128542;27;19954;-46
2023/10/17 14:36:18;;;;;;;;;;;19.90;99.90;;;;;;5115214;28;19911;-47
2023/10/17 14:38:44;;;;;;;;;;;20.00;99.50;;;;;;5115789;28;19914;-46
2023/10/17 14:41:10;;;;;;;;;;;20.00;99.90;;;;;;5115455;28;19908;-46
2023/10/17 14:43:38;;;;;;;;;;;20.00;99.90;;;;;;5115422;28;19915;-47
2023/10/17 14:46:05;;;;;;;;;;;20.00;98.90;;;;;;5115241;28;19915;-47
2023/10/17 14:48:30;;;;;;;;;;;20.00;97.50;;;;;;5116511;27;19920;-45
2023/10/17 14:50:56;;;;;;;;;;;20.00;99.00;;;;;;5115189;28;20028;-46
2023/10/17 14:53:21;;;;;;;;;;;20.10;98.60;;;;;;5115083;28;19907;-46
2023/10/17 14:55:57;;;;;;;;;;;20.10;98.60;;;;;;5114937;28;19908;-45
2023/10/17 14:58:22;;;;;;;;;;;19.90;98.20;;;;;;5115097;28;20378;-46
2023/10/17 15:00:48;;;;;;;;;;;19.90;99.30;;;;;;5115062;28;19914;-47
2023/10/17 15:03:14;;;;;;;;;;;19.70;98.60;;;;;;5114694;27;20316;-46
2023/10/17 15:05:39;;;;;;;;;;;19.30;98.50;;;;;;5115014;28;20374;-45
2023/10/17 15:08:05;;;;;;;;;;;18.90;97.70;;;;;;5117363;27;20384;-47
2023/10/17 15:10:30;;;;;;;;;;;18.50;99.90;;;;;;5117885;27;20400;-47
2023/10/17 15:12:58;;;;;;;;;;;18.10;99.90;;;;;;5120851;27;19923;-46
2023/10/17 15:15:23;;;;;;;;;;;17.80;99.90;;;;;;5114444;27;19911;-46
2023/10/17 15:17:50;;;;;;;;;;;17.40;99.90;;;;;;5114682;27;19978;-47
2023/10/17 15:20:16;;;;;;;;;;;17.10;99.90;;;;;;5114723;28;19908;-48
2023/10/17 15:22:42;;;;;;;;;;;16.80;99.90;;;;;;5117022;27;19916;-46
2023/10/17 15:25:12;;;;;;;;;;;16.70;99.90;;;;;;5114501;28;20358;-47
2023/10/17 15:27:41;;;;;;;;;;;16.60;99.90;;;;;;5114475;28;19912;-45
2023/10/17 15:30:08;;;;;;;;;;;16.50;99.90;;;;;;5114062;28;19955;-46
2023/10/17 15:32:34;;;;;;;;;;;16.40;99.90;;;;;;5114490;28;19951;-46
2023/10/17 15:34:59;;;;;;;;;;;16.20;99.90;;;;;;5114021;27;19951;-45
2023/10/17 15:37:25;;;;;;;;;;;15.90;99.90;;;;;;5104400;28;19923;-47
2023/10/17 15:39:50;;;;;;;;;;;15.70;99.90;;;;;;5093900;28;20015;-46
2023/10/17 15:42:17;;;;;;;;;;;15.70;99.90;;;;;;5096512;28;19912;-47
2023/10/17 15:44:45;;;;;;;;;;;15.60;99.90;;;;;;5112568;28;19919;-44
2023/10/17 15:47:12;;;;;;;;;;;15.70;99.90;;;;;;5098503;28;19945;-47
2023/10/17 15:49:38;;;;;;;;;;;15.80;99.90;;;;;;5107411;28;19938;-46
2023/10/17 15:52:04;;;;;;;;;;;15.90;99.90;;;;;;5099558;28;19919;-46
2023/10/17 15:54:33;;;;;;;;;;;16.00;99.90;;;;;;5097896;28;20014;-45
2023/10/17 15:57:01;;;;;;;;;;;16.00;99.90;;;;;;5099965;28;20421;-45
2023/10/17 15:59:27;;;;;;;;;;;16.00;99.90;;;;;;5101491;28;19991;-48
2023/10/17 16:01:52;;;;;;;;;;;16.00;99.90;;;;;;5099273;28;20424;-46
2023/10/17 16:04:18;;;;;;;;;;;15.90;99.90;;;;;;5110198;28;19915;-45
2023/10/17 16:06:43;;;;;;;;;;;15.80;99.90;;;;;;5095578;28;19957;-46
2023/10/17 16:09:15;;;;;;;;;;;15.50;99.90;;;;;;5097671;28;20324;-49
2023/10/17 16:11:42;;;;;;;;;;;15.10;99.90;;;;;;5108049;28;19912;-45
2023/10/17 16:14:10;;;;;;;;;;;14.80;99.90;;;;;;5105332;28;19916;-46
2023/10/17 16:16:36;;;;;;;;;;;14.40;99.90;;;;;;5098871;28;19918;-46
2023/10/17 16:19:02;;;;;;;;;;;14.10;99.90;;;;;;5101122;28;19947;-46
2023/10/17 16:21:27;;;;;;;;;;;13.70;99.90;;;;;;5095444;28;19947;-45
2023/10/17 16:23:53;;;;;;;;;;;13.40;99.90;;;;;;5092719;28;20325;-48
2023/10/17 16:26:18;;;;;;;;;;;13.10;99.90;;;;;;5099552;28;19915;-45
2023/10/17 16:28:45;;;;;;;;;;;12.80;99.90;;;;;;5113248;28;20411;-45
2023/10/17 16:31:13;;;;;;;;;;;12.60;99.90;;;;;;5113622;28;19907;-45
2023/10/17 16:33:38;;;;;;;;;;;12.30;99.90;;;;;;5107578;28;19918;-48
2023/10/17 16:36:05;;;;;;;;;;;12.10;99.90;;;;;;5102263;28;20006;-47
2023/10/17 16:38:38;;;;;;;;;;;11.90;99.90;;;;;;5133077;27;19927;-45
2023/10/17 16:41:04;;;;;;;;;;;11.70;99.90;;;;;;5133871;27;19908;-46
2023/10/17 16:43:31;;;;;;;;;;;11.50;99.90;;;;;;5130064;27;19912;-46
2023/10/17 16:45:59;;;;;;;;;;;11.40;99.90;;;;;;5113276;28;19915;-45
2023/10/17 16:48:25;;;;;;;;;;;11.30;99.90;;;;;;5120979;28;19927;-45